sensor_id;sensor_type;location;lat;lon;timestamp;P1;durP1;ratioP1;P2;durP2;ratioP2
54307;SDS011;40208;39.778;2.710;2024-02-23T00:02:22;16.77;;;3.00;;
54307;SDS011;40208;39.778;2.710;2024-02-23T00:05:07;17.75;;;2.70;;
54307;SDS011;40208;39.778;2.710;2024-02-23T00:07:52;16.17;;;2.90;;
54307;SDS011;40208;39.778;2.710;2024-02-23T00:10:37;21.98;;;3.65;;
54307;SDS011;40208;39.778;2.710;2024-02-23T00:13:22;19.33;;;3.33;;
54307;SDS011;40208;39.778;2.710;2024-02-23T00:16:07;16.23;;;3.10;;
54307;SDS011;40208;39.778;2.710;2024-02-23T00:18:52;10.23;;;2.58;;
54307;SDS011;40208;39.778;2.710;2024-02-23T00:21:37;21.80;;;3.65;;
54307;SDS011;40208;39.778;2.710;2024-02-23T00:24:27;13.85;;;3.33;;
54307;SDS011;40208;39.778;2.710;2024-02-23T00:27:15;24.38;;;3.80;;
54307;SDS011;40208;39.778;2.710;2024-02-23T00:29:59;16.20;;;3.47;;
54307;SDS011;40208;39.778;2.710;2024-02-23T00:32:44;12.20;;;2.88;;
54307;SDS011;40208;39.778;2.710;2024-02-23T00:35:29;20.27;;;3.17;;
54307;SDS011;40208;39.778;2.710;2024-02-23T00:38:14;30.45;;;4.28;;
54307;SDS011;40208;39.778;2.710;2024-02-23T00:40:59;27.92;;;3.78;;
54307;SDS011;40208;39.778;2.710;2024-02-23T00:43:44;21.20;;;3.85;;
54307;SDS011;40208;39.778;2.710;2024-02-23T00:46:29;19.88;;;3.70;;
54307;SDS011;40208;39.778;2.710;2024-02-23T00:49:13;18.27;;;3.03;;
54307;SDS011;40208;39.778;2.710;2024-02-23T00:51:58;15.18;;;2.95;;
54307;SDS011;40208;39.778;2.710;2024-02-23T00:54:43;22.20;;;3.80;;
54307;SDS011;40208;39.778;2.710;2024-02-23T00:57:29;20.02;;;3.33;;
54307;SDS011;40208;39.778;2.710;2024-02-23T01:00:14;18.33;;;3.13;;
54307;SDS011;40208;39.778;2.710;2024-02-23T01:02:59;19.63;;;3.50;;
54307;SDS011;40208;39.778;2.710;2024-02-23T01:05:45;27.23;;;4.50;;
54307;SDS011;40208;39.778;2.710;2024-02-23T01:08:29;24.17;;;4.70;;
54307;SDS011;40208;39.778;2.710;2024-02-23T01:11:15;24.70;;;3.70;;
54307;SDS011;40208;39.778;2.710;2024-02-23T01:14:00;28.75;;;4.30;;
54307;SDS011;40208;39.778;2.710;2024-02-23T01:16:45;12.75;;;3.42;;
54307;SDS011;40208;39.778;2.710;2024-02-23T01:19:30;25.77;;;3.95;;
54307;SDS011;40208;39.778;2.710;2024-02-23T01:22:15;15.07;;;3.33;;
54307;SDS011;40208;39.778;2.710;2024-02-23T01:24:59;15.68;;;3.03;;
54307;SDS011;40208;39.778;2.710;2024-02-23T01:27:45;20.02;;;3.75;;
54307;SDS011;40208;39.778;2.710;2024-02-23T01:30:30;17.30;;;3.95;;
54307;SDS011;40208;39.778;2.710;2024-02-23T01:33:15;21.45;;;4.28;;
54307;SDS011;40208;39.778;2.710;2024-02-23T01:36:00;24.00;;;4.30;;
54307;SDS011;40208;39.778;2.710;2024-02-23T01:38:49;20.45;;;3.42;;
54307;SDS011;40208;39.778;2.710;2024-02-23T01:41:34;19.70;;;3.22;;
54307;SDS011;40208;39.778;2.710;2024-02-23T01:44:19;21.15;;;4.20;;
54307;SDS011;40208;39.778;2.710;2024-02-23T01:47:05;24.42;;;4.45;;
54307;SDS011;40208;39.778;2.710;2024-02-23T01:49:51;21.05;;;4.18;;
54307;SDS011;40208;39.778;2.710;2024-02-23T01:52:36;19.50;;;3.22;;
54307;SDS011;40208;39.778;2.710;2024-02-23T01:55:25;17.08;;;3.17;;
54307;SDS011;40208;39.778;2.710;2024-02-23T01:58:11;15.05;;;3.33;;
54307;SDS011;40208;39.778;2.710;2024-02-23T02:00:56;21.30;;;3.42;;
54307;SDS011;40208;39.778;2.710;2024-02-23T02:03:41;20.90;;;3.67;;
54307;SDS011;40208;39.778;2.710;2024-02-23T02:06:27;12.13;;;2.88;;
54307;SDS011;40208;39.778;2.710;2024-02-23T02:09:12;13.75;;;2.78;;
54307;SDS011;40208;39.778;2.710;2024-02-23T02:11:57;18.90;;;2.75;;
54307;SDS011;40208;39.778;2.710;2024-02-23T02:14:42;19.30;;;3.95;;
54307;SDS011;40208;39.778;2.710;2024-02-23T02:17:29;15.10;;;2.95;;
54307;SDS011;40208;39.778;2.710;2024-02-23T02:20:15;18.73;;;3.17;;
54307;SDS011;40208;39.778;2.710;2024-02-23T02:23:08;21.08;;;2.78;;
54307;SDS011;40208;39.778;2.710;2024-02-23T02:25:56;13.73;;;2.60;;
54307;SDS011;40208;39.778;2.710;2024-02-23T02:28:42;18.45;;;3.60;;
54307;SDS011;40208;39.778;2.710;2024-02-23T02:31:27;22.15;;;3.17;;
54307;SDS011;40208;39.778;2.710;2024-02-23T02:34:12;15.13;;;2.85;;
54307;SDS011;40208;39.778;2.710;2024-02-23T02:37:00;15.40;;;2.85;;
54307;SDS011;40208;39.778;2.710;2024-02-23T02:39:45;17.70;;;3.03;;
54307;SDS011;40208;39.778;2.710;2024-02-23T02:42:30;17.23;;;3.13;;
54307;SDS011;40208;39.778;2.710;2024-02-23T02:45:15;18.58;;;2.90;;
54307;SDS011;40208;39.778;2.710;2024-02-23T02:48:02;21.92;;;3.35;;
54307;SDS011;40208;39.778;2.710;2024-02-23T02:50:47;19.20;;;3.03;;
54307;SDS011;40208;39.778;2.710;2024-02-23T02:53:34;12.57;;;2.70;;
54307;SDS011;40208;39.778;2.710;2024-02-23T02:56:19;14.77;;;2.83;;
54307;SDS011;40208;39.778;2.710;2024-02-23T02:59:04;18.98;;;2.03;;
54307;SDS011;40208;39.778;2.710;2024-02-23T03:01:48;12.32;;;2.45;;
54307;SDS011;40208;39.778;2.710;2024-02-23T03:04:33;14.50;;;2.72;;
54307;SDS011;40208;39.778;2.710;2024-02-23T03:07:18;14.15;;;1.80;;
54307;SDS011;40208;39.778;2.710;2024-02-23T03:10:04;9.18;;;1.92;;
54307;SDS011;40208;39.778;2.710;2024-02-23T03:12:49;9.32;;;1.63;;
54307;SDS011;40208;39.778;2.710;2024-02-23T03:15:34;16.25;;;2.40;;
54307;SDS011;40208;39.778;2.710;2024-02-23T03:18:19;11.73;;;2.00;;
54307;SDS011;40208;39.778;2.710;2024-02-23T03:21:04;14.60;;;3.17;;
54307;SDS011;40208;39.778;2.710;2024-02-23T03:23:51;16.05;;;2.45;;
54307;SDS011;40208;39.778;2.710;2024-02-23T03:26:36;12.98;;;1.95;;
54307;SDS011;40208;39.778;2.710;2024-02-23T03:29:21;17.00;;;2.25;;
54307;SDS011;40208;39.778;2.710;2024-02-23T03:32:08;12.00;;;1.98;;
54307;SDS011;40208;39.778;2.710;2024-02-23T03:34:53;20.30;;;3.03;;
54307;SDS011;40208;39.778;2.710;2024-02-23T03:37:38;15.05;;;2.05;;
54307;SDS011;40208;39.778;2.710;2024-02-23T03:40:23;15.63;;;2.05;;
54307;SDS011;40208;39.778;2.710;2024-02-23T03:43:08;14.45;;;2.50;;
54307;SDS011;40208;39.778;2.710;2024-02-23T03:45:53;15.05;;;2.42;;
54307;SDS011;40208;39.778;2.710;2024-02-23T03:48:38;12.50;;;2.28;;
54307;SDS011;40208;39.778;2.710;2024-02-23T03:51:22;11.68;;;2.03;;
54307;SDS011;40208;39.778;2.710;2024-02-23T03:54:08;12.50;;;1.75;;
54307;SDS011;40208;39.778;2.710;2024-02-23T03:56:56;10.30;;;2.13;;
54307;SDS011;40208;39.778;2.710;2024-02-23T03:59:30;8.35;;;2.35;;
54307;SDS011;40208;39.778;2.710;2024-02-23T04:02:15;14.90;;;2.20;;
54307;SDS011;40208;39.778;2.710;2024-02-23T04:05:00;17.63;;;2.42;;
54307;SDS011;40208;39.778;2.710;2024-02-23T04:07:45;11.55;;;2.00;;
54307;SDS011;40208;39.778;2.710;2024-02-23T04:10:30;18.38;;;2.30;;
54307;SDS011;40208;39.778;2.710;2024-02-23T04:13:14;21.25;;;2.28;;
54307;SDS011;40208;39.778;2.710;2024-02-23T04:16:00;14.75;;;2.30;;
54307;SDS011;40208;39.778;2.710;2024-02-23T04:18:45;17.83;;;2.75;;
54307;SDS011;40208;39.778;2.710;2024-02-23T04:21:30;16.33;;;2.28;;
54307;SDS011;40208;39.778;2.710;2024-02-23T04:24:15;15.85;;;2.42;;
54307;SDS011;40208;39.778;2.710;2024-02-23T04:26:59;14.32;;;2.47;;
54307;SDS011;40208;39.778;2.710;2024-02-23T04:29:45;19.58;;;3.25;;
54307;SDS011;40208;39.778;2.710;2024-02-23T04:32:29;13.50;;;2.42;;
54307;SDS011;40208;39.778;2.710;2024-02-23T04:35:15;17.80;;;2.28;;
54307;SDS011;40208;39.778;2.710;2024-02-23T04:37:59;21.55;;;2.92;;
54307;SDS011;40208;39.778;2.710;2024-02-23T04:40:44;11.43;;;2.50;;
54307;SDS011;40208;39.778;2.710;2024-02-23T04:43:30;23.90;;;2.47;;
54307;SDS011;40208;39.778;2.710;2024-02-23T04:46:14;15.73;;;3.40;;
54307;SDS011;40208;39.778;2.710;2024-02-23T04:49:00;19.98;;;2.75;;
54307;SDS011;40208;39.778;2.710;2024-02-23T04:51:45;26.83;;;2.83;;
54307;SDS011;40208;39.778;2.710;2024-02-23T04:54:29;16.48;;;1.90;;
54307;SDS011;40208;39.778;2.710;2024-02-23T04:57:14;18.85;;;2.30;;
54307;SDS011;40208;39.778;2.710;2024-02-23T04:59:59;21.85;;;3.75;;
54307;SDS011;40208;39.778;2.710;2024-02-23T05:02:45;21.80;;;3.00;;
54307;SDS011;40208;39.778;2.710;2024-02-23T05:05:30;17.23;;;2.90;;
54307;SDS011;40208;39.778;2.710;2024-02-23T05:08:16;15.32;;;2.80;;
54307;SDS011;40208;39.778;2.710;2024-02-23T05:11:00;21.13;;;3.17;;
54307;SDS011;40208;39.778;2.710;2024-02-23T05:13:45;15.77;;;2.38;;
54307;SDS011;40208;39.778;2.710;2024-02-23T05:16:31;19.00;;;3.10;;
54307;SDS011;40208;39.778;2.710;2024-02-23T05:19:15;29.02;;;3.95;;
54307;SDS011;40208;39.778;2.710;2024-02-23T05:22:01;22.70;;;3.28;;
54307;SDS011;40208;39.778;2.710;2024-02-23T05:24:46;13.90;;;2.28;;
54307;SDS011;40208;39.778;2.710;2024-02-23T05:27:31;11.40;;;2.55;;
54307;SDS011;40208;39.778;2.710;2024-02-23T05:30:16;9.07;;;1.60;;
54307;SDS011;40208;39.778;2.710;2024-02-23T05:33:01;11.95;;;1.80;;
54307;SDS011;40208;39.778;2.710;2024-02-23T05:35:47;13.60;;;2.08;;
54307;SDS011;40208;39.778;2.710;2024-02-23T05:38:36;6.93;;;1.38;;
54307;SDS011;40208;39.778;2.710;2024-02-23T05:41:21;6.38;;;1.02;;
54307;SDS011;40208;39.778;2.710;2024-02-23T05:44:06;6.97;;;1.75;;
54307;SDS011;40208;39.778;2.710;2024-02-23T05:46:51;4.05;;;1.30;;
54307;SDS011;40208;39.778;2.710;2024-02-23T05:49:36;6.78;;;1.10;;
54307;SDS011;40208;39.778;2.710;2024-02-23T05:52:21;6.85;;;1.25;;
54307;SDS011;40208;39.778;2.710;2024-02-23T05:55:06;3.13;;;1.10;;
54307;SDS011;40208;39.778;2.710;2024-02-23T05:57:52;8.00;;;1.33;;
54307;SDS011;40208;39.778;2.710;2024-02-23T06:00:36;7.70;;;1.67;;
54307;SDS011;40208;39.778;2.710;2024-02-23T06:03:21;14.00;;;1.83;;
54307;SDS011;40208;39.778;2.710;2024-02-23T06:06:06;15.27;;;1.48;;
54307;SDS011;40208;39.778;2.710;2024-02-23T06:08:52;6.78;;;1.20;;
54307;SDS011;40208;39.778;2.710;2024-02-23T06:11:37;4.78;;;1.30;;
54307;SDS011;40208;39.778;2.710;2024-02-23T06:14:22;9.80;;;1.77;;
54307;SDS011;40208;39.778;2.710;2024-02-23T06:17:07;10.23;;;2.30;;
54307;SDS011;40208;39.778;2.710;2024-02-23T06:19:52;9.13;;;2.70;;
54307;SDS011;40208;39.778;2.710;2024-02-23T06:22:37;6.55;;;1.88;;
54307;SDS011;40208;39.778;2.710;2024-02-23T06:25:22;9.35;;;2.03;;
54307;SDS011;40208;39.778;2.710;2024-02-23T06:28:07;11.20;;;1.95;;
54307;SDS011;40208;39.778;2.710;2024-02-23T06:30:52;7.63;;;1.70;;
54307;SDS011;40208;39.778;2.710;2024-02-23T06:33:37;9.27;;;1.77;;
54307;SDS011;40208;39.778;2.710;2024-02-23T06:36:21;9.20;;;1.80;;
54307;SDS011;40208;39.778;2.710;2024-02-23T06:39:06;9.15;;;2.00;;
54307;SDS011;40208;39.778;2.710;2024-02-23T06:41:52;8.23;;;1.52;;
54307;SDS011;40208;39.778;2.710;2024-02-23T06:44:37;9.48;;;1.92;;
54307;SDS011;40208;39.778;2.710;2024-02-23T06:47:22;11.05;;;1.95;;
54307;SDS011;40208;39.778;2.710;2024-02-23T06:50:07;6.15;;;1.50;;
54307;SDS011;40208;39.778;2.710;2024-02-23T06:52:52;5.28;;;1.52;;
54307;SDS011;40208;39.778;2.710;2024-02-23T06:55:37;8.10;;;1.73;;
54307;SDS011;40208;39.778;2.710;2024-02-23T06:58:22;5.20;;;1.75;;
54307;SDS011;40208;39.778;2.710;2024-02-23T07:01:07;5.63;;;1.38;;
54307;SDS011;40208;39.778;2.710;2024-02-23T07:03:55;9.05;;;2.08;;
54307;SDS011;40208;39.778;2.710;2024-02-23T07:06:40;5.95;;;1.27;;
54307;SDS011;40208;39.778;2.710;2024-02-23T07:09:25;5.72;;;1.20;;
54307;SDS011;40208;39.778;2.710;2024-02-23T07:12:10;6.07;;;1.30;;
54307;SDS011;40208;39.778;2.710;2024-02-23T07:14:57;8.70;;;1.45;;
54307;SDS011;40208;39.778;2.710;2024-02-23T07:17:42;11.18;;;1.15;;
54307;SDS011;40208;39.778;2.710;2024-02-23T07:20:29;5.85;;;1.20;;
54307;SDS011;40208;39.778;2.710;2024-02-23T07:23:13;10.02;;;1.50;;
54307;SDS011;40208;39.778;2.710;2024-02-23T07:26:00;12.15;;;1.90;;
54307;SDS011;40208;39.778;2.710;2024-02-23T07:28:45;16.05;;;1.92;;
54307;SDS011;40208;39.778;2.710;2024-02-23T07:31:30;18.67;;;2.58;;
54307;SDS011;40208;39.778;2.710;2024-02-23T07:34:16;7.93;;;1.90;;
54307;SDS011;40208;39.778;2.710;2024-02-23T07:37:01;11.68;;;1.85;;
54307;SDS011;40208;39.778;2.710;2024-02-23T07:39:47;14.88;;;2.10;;
54307;SDS011;40208;39.778;2.710;2024-02-23T07:42:32;15.55;;;2.35;;
54307;SDS011;40208;39.778;2.710;2024-02-23T07:45:17;16.73;;;1.60;;
54307;SDS011;40208;39.778;2.710;2024-02-23T07:48:02;18.92;;;2.17;;
54307;SDS011;40208;39.778;2.710;2024-02-23T07:50:47;5.35;;;1.63;;
54307;SDS011;40208;39.778;2.710;2024-02-23T07:53:32;16.42;;;2.42;;
54307;SDS011;40208;39.778;2.710;2024-02-23T07:56:17;8.90;;;2.15;;
54307;SDS011;40208;39.778;2.710;2024-02-23T07:59:02;10.38;;;1.75;;
54307;SDS011;40208;39.778;2.710;2024-02-23T08:01:47;11.38;;;2.30;;
54307;SDS011;40208;39.778;2.710;2024-02-23T08:04:32;16.05;;;2.33;;
54307;SDS011;40208;39.778;2.710;2024-02-23T08:07:17;11.07;;;2.33;;
54307;SDS011;40208;39.778;2.710;2024-02-23T08:10:02;17.75;;;2.60;;
54307;SDS011;40208;39.778;2.710;2024-02-23T08:12:49;14.48;;;2.50;;
54307;SDS011;40208;39.778;2.710;2024-02-23T08:15:34;9.52;;;1.90;;
54307;SDS011;40208;39.778;2.710;2024-02-23T08:18:20;12.32;;;2.53;;
54307;SDS011;40208;39.778;2.710;2024-02-23T08:21:06;13.05;;;2.40;;
54307;SDS011;40208;39.778;2.710;2024-02-23T08:23:52;18.83;;;2.25;;
54307;SDS011;40208;39.778;2.710;2024-02-23T08:26:36;16.48;;;2.30;;
54307;SDS011;40208;39.778;2.710;2024-02-23T08:29:23;14.00;;;2.10;;
54307;SDS011;40208;39.778;2.710;2024-02-23T08:32:07;15.40;;;2.63;;
54307;SDS011;40208;39.778;2.710;2024-02-23T08:34:52;18.33;;;2.08;;
54307;SDS011;40208;39.778;2.710;2024-02-23T08:37:43;14.82;;;2.28;;
54307;SDS011;40208;39.778;2.710;2024-02-23T08:40:28;13.85;;;2.42;;
54307;SDS011;40208;39.778;2.710;2024-02-23T08:43:13;12.15;;;3.28;;
54307;SDS011;40208;39.778;2.710;2024-02-23T08:45:58;13.55;;;2.47;;
54307;SDS011;40208;39.778;2.710;2024-02-23T08:48:43;16.70;;;2.53;;
54307;SDS011;40208;39.778;2.710;2024-02-23T08:51:28;15.88;;;3.35;;
54307;SDS011;40208;39.778;2.710;2024-02-23T08:54:13;14.20;;;2.53;;
54307;SDS011;40208;39.778;2.710;2024-02-23T08:56:58;18.70;;;2.67;;
54307;SDS011;40208;39.778;2.710;2024-02-23T08:59:42;17.77;;;2.85;;
54307;SDS011;40208;39.778;2.710;2024-02-23T09:02:27;18.33;;;2.92;;
54307;SDS011;40208;39.778;2.710;2024-02-23T09:05:12;12.30;;;2.47;;
54307;SDS011;40208;39.778;2.710;2024-02-23T09:07:57;13.18;;;3.00;;
54307;SDS011;40208;39.778;2.710;2024-02-23T09:10:42;15.52;;;2.78;;
54307;SDS011;40208;39.778;2.710;2024-02-23T09:13:27;10.32;;;2.20;;
54307;SDS011;40208;39.778;2.710;2024-02-23T09:16:14;17.15;;;2.47;;
54307;SDS011;40208;39.778;2.710;2024-02-23T09:18:59;15.52;;;2.28;;
54307;SDS011;40208;39.778;2.710;2024-02-23T09:21:44;12.38;;;2.45;;
54307;SDS011;40208;39.778;2.710;2024-02-23T09:24:29;19.92;;;2.13;;
54307;SDS011;40208;39.778;2.710;2024-02-23T09:27:14;12.05;;;2.20;;
54307;SDS011;40208;39.778;2.710;2024-02-23T09:29:59;10.85;;;2.83;;
54307;SDS011;40208;39.778;2.710;2024-02-23T09:32:44;13.05;;;2.60;;
54307;SDS011;40208;39.778;2.710;2024-02-23T09:35:29;9.27;;;2.42;;
54307;SDS011;40208;39.778;2.710;2024-02-23T09:38:14;10.43;;;2.53;;
54307;SDS011;40208;39.778;2.710;2024-02-23T09:40:59;9.05;;;2.70;;
54307;SDS011;40208;39.778;2.710;2024-02-23T09:43:46;13.48;;;2.35;;
54307;SDS011;40208;39.778;2.710;2024-02-23T09:46:31;11.77;;;2.42;;
54307;SDS011;40208;39.778;2.710;2024-02-23T09:49:16;16.45;;;2.70;;
54307;SDS011;40208;39.778;2.710;2024-02-23T09:52:01;17.80;;;3.25;;
54307;SDS011;40208;39.778;2.710;2024-02-23T09:54:47;14.57;;;2.95;;
54307;SDS011;40208;39.778;2.710;2024-02-23T09:57:33;11.68;;;2.30;;
54307;SDS011;40208;39.778;2.710;2024-02-23T10:00:18;14.77;;;2.63;;
54307;SDS011;40208;39.778;2.710;2024-02-23T10:03:03;22.67;;;2.90;;
54307;SDS011;40208;39.778;2.710;2024-02-23T10:05:48;13.15;;;2.38;;
54307;SDS011;40208;39.778;2.710;2024-02-23T10:08:33;11.85;;;2.90;;
54307;SDS011;40208;39.778;2.710;2024-02-23T10:11:19;15.07;;;2.80;;
54307;SDS011;40208;39.778;2.710;2024-02-23T10:14:05;11.55;;;2.70;;
54307;SDS011;40208;39.778;2.710;2024-02-23T10:16:49;13.63;;;2.70;;
54307;SDS011;40208;39.778;2.710;2024-02-23T10:19:38;9.45;;;2.47;;
54307;SDS011;40208;39.778;2.710;2024-02-23T10:22:23;17.40;;;3.25;;
54307;SDS011;40208;39.778;2.710;2024-02-23T10:25:09;13.88;;;2.90;;
54307;SDS011;40208;39.778;2.710;2024-02-23T10:27:54;13.02;;;3.42;;
54307;SDS011;40208;39.778;2.710;2024-02-23T10:30:39;12.13;;;2.83;;
54307;SDS011;40208;39.778;2.710;2024-02-23T10:33:25;12.55;;;2.90;;
54307;SDS011;40208;39.778;2.710;2024-02-23T10:36:11;13.00;;;3.28;;
54307;SDS011;40208;39.778;2.710;2024-02-23T10:38:59;16.60;;;3.47;;
54307;SDS011;40208;39.778;2.710;2024-02-23T10:41:56;7.72;;;1.80;;
54307;SDS011;40208;39.778;2.710;2024-02-23T10:44:44;11.13;;;2.30;;
54307;SDS011;40208;39.778;2.710;2024-02-23T10:47:30;11.20;;;1.95;;
54307;SDS011;40208;39.778;2.710;2024-02-23T10:50:15;15.30;;;2.60;;
54307;SDS011;40208;39.778;2.710;2024-02-23T10:53:04;14.23;;;2.92;;
54307;SDS011;40208;39.778;2.710;2024-02-23T10:55:56;12.13;;;2.03;;
54307;SDS011;40208;39.778;2.710;2024-02-23T10:58:44;10.93;;;2.88;;
54307;SDS011;40208;39.778;2.710;2024-02-23T11:01:28;8.63;;;2.40;;
54307;SDS011;40208;39.778;2.710;2024-02-23T11:04:14;9.07;;;2.03;;
54307;SDS011;40208;39.778;2.710;2024-02-23T11:07:01;8.95;;;2.03;;
54307;SDS011;40208;39.778;2.710;2024-02-23T11:09:52;9.55;;;1.83;;
54307;SDS011;40208;39.778;2.710;2024-02-23T11:12:38;13.10;;;2.13;;
54307;SDS011;40208;39.778;2.710;2024-02-23T11:15:26;8.35;;;1.73;;
54307;SDS011;40208;39.778;2.710;2024-02-23T11:18:21;10.33;;;1.70;;
54307;SDS011;40208;39.778;2.710;2024-02-23T11:21:12;11.02;;;4.55;;
54307;SDS011;40208;39.778;2.710;2024-02-23T11:23:57;15.82;;;5.72;;
54307;SDS011;40208;39.778;2.710;2024-02-23T11:26:47;16.48;;;6.38;;
54307;SDS011;40208;39.778;2.710;2024-02-23T11:29:32;9.23;;;4.30;;
54307;SDS011;40208;39.778;2.710;2024-02-23T11:32:18;14.48;;;4.13;;
54307;SDS011;40208;39.778;2.710;2024-02-23T11:35:03;11.98;;;3.65;;
54307;SDS011;40208;39.778;2.710;2024-02-23T11:37:53;15.88;;;4.60;;
54307;SDS011;40208;39.778;2.710;2024-02-23T11:40:44;9.35;;;3.38;;
54307;SDS011;40208;39.778;2.710;2024-02-23T11:43:30;15.30;;;3.50;;
54307;SDS011;40208;39.778;2.710;2024-02-23T11:46:18;9.80;;;2.63;;
54307;SDS011;40208;39.778;2.710;2024-02-23T11:49:04;14.45;;;2.70;;
54307;SDS011;40208;39.778;2.710;2024-02-23T11:51:48;12.43;;;3.03;;
54307;SDS011;40208;39.778;2.710;2024-02-23T11:54:33;9.77;;;3.42;;
54307;SDS011;40208;39.778;2.710;2024-02-23T11:57:19;7.35;;;2.38;;
54307;SDS011;40208;39.778;2.710;2024-02-23T12:00:07;10.45;;;2.63;;
54307;SDS011;40208;39.778;2.710;2024-02-23T12:02:53;9.33;;;2.83;;
54307;SDS011;40208;39.778;2.710;2024-02-23T12:05:38;4.95;;;1.92;;
54307;SDS011;40208;39.778;2.710;2024-02-23T12:08:23;7.65;;;2.10;;
54307;SDS011;40208;39.778;2.710;2024-02-23T12:11:11;10.20;;;2.42;;
54307;SDS011;40208;39.778;2.710;2024-02-23T12:13:58;8.90;;;1.85;;
54307;SDS011;40208;39.778;2.710;2024-02-23T12:16:43;9.35;;;2.42;;
54307;SDS011;40208;39.778;2.710;2024-02-23T12:19:28;12.90;;;2.28;;
54307;SDS011;40208;39.778;2.710;2024-02-23T12:22:14;6.97;;;1.60;;
54307;SDS011;40208;39.778;2.710;2024-02-23T12:24:59;6.82;;;2.03;;
54307;SDS011;40208;39.778;2.710;2024-02-23T12:27:44;10.68;;;2.45;;
54307;SDS011;40208;39.778;2.710;2024-02-23T12:30:29;7.35;;;1.70;;
54307;SDS011;40208;39.778;2.710;2024-02-23T12:33:16;10.57;;;2.28;;
54307;SDS011;40208;39.778;2.710;2024-02-23T12:36:01;9.57;;;2.50;;
54307;SDS011;40208;39.778;2.710;2024-02-23T12:38:47;8.48;;;2.33;;
54307;SDS011;40208;39.778;2.710;2024-02-23T12:41:32;7.00;;;2.00;;
54307;SDS011;40208;39.778;2.710;2024-02-23T12:44:16;9.05;;;2.13;;
54307;SDS011;40208;39.778;2.710;2024-02-23T12:47:01;7.63;;;2.83;;
54307;SDS011;40208;39.778;2.710;2024-02-23T12:49:49;6.38;;;2.10;;
54307;SDS011;40208;39.778;2.710;2024-02-23T12:52:40;8.23;;;2.70;;
54307;SDS011;40208;39.778;2.710;2024-02-23T12:55:36;9.52;;;2.60;;
54307;SDS011;40208;39.778;2.710;2024-02-23T12:58:24;7.20;;;2.40;;
54307;SDS011;40208;39.778;2.710;2024-02-23T13:01:10;9.45;;;2.88;;
54307;SDS011;40208;39.778;2.710;2024-02-23T13:03:55;11.50;;;3.28;;
54307;SDS011;40208;39.778;2.710;2024-02-23T13:06:41;6.43;;;2.67;;
54307;SDS011;40208;39.778;2.710;2024-02-23T13:09:26;7.90;;;2.50;;
54307;SDS011;40208;39.778;2.710;2024-02-23T13:12:29;10.15;;;3.10;;
54307;SDS011;40208;39.778;2.710;2024-02-23T13:15:27;10.18;;;3.78;;
54307;SDS011;40208;39.778;2.710;2024-02-23T13:21:31;7.28;;;2.40;;
54307;SDS011;40208;39.778;2.710;2024-02-23T13:28:24;10.48;;;2.05;;
54307;SDS011;40208;39.778;2.710;2024-02-23T13:31:09;7.45;;;1.80;;
54307;SDS011;40208;39.778;2.710;2024-02-23T13:33:55;9.32;;;2.25;;
54307;SDS011;40208;39.778;2.710;2024-02-23T13:36:40;5.30;;;2.17;;
54307;SDS011;40208;39.778;2.710;2024-02-23T13:39:25;5.13;;;1.73;;
54307;SDS011;40208;39.778;2.710;2024-02-23T13:42:10;7.55;;;1.83;;
54307;SDS011;40208;39.778;2.710;2024-02-23T13:44:55;6.35;;;1.42;;
54307;SDS011;40208;39.778;2.710;2024-02-23T13:47:40;4.95;;;1.40;;
54307;SDS011;40208;39.778;2.710;2024-02-23T13:50:25;9.00;;;2.03;;
54307;SDS011;40208;39.778;2.710;2024-02-23T13:53:11;4.20;;;1.95;;
54307;SDS011;40208;39.778;2.710;2024-02-23T13:55:56;7.95;;;1.95;;
54307;SDS011;40208;39.778;2.710;2024-02-23T13:58:41;4.22;;;1.65;;
54307;SDS011;40208;39.778;2.710;2024-02-23T14:01:26;9.73;;;1.70;;
54307;SDS011;40208;39.778;2.710;2024-02-23T14:04:11;5.57;;;1.70;;
54307;SDS011;40208;39.778;2.710;2024-02-23T14:06:56;6.00;;;1.85;;
54307;SDS011;40208;39.778;2.710;2024-02-23T14:09:41;4.18;;;1.40;;
54307;SDS011;40208;39.778;2.710;2024-02-23T14:12:25;6.82;;;1.88;;
54307;SDS011;40208;39.778;2.710;2024-02-23T14:15:10;6.55;;;1.42;;
54307;SDS011;40208;39.778;2.710;2024-02-23T14:17:56;9.40;;;1.60;;
54307;SDS011;40208;39.778;2.710;2024-02-23T14:20:41;7.97;;;1.80;;
54307;SDS011;40208;39.778;2.710;2024-02-23T14:23:26;6.75;;;1.50;;
54307;SDS011;40208;39.778;2.710;2024-02-23T14:26:11;5.38;;;1.27;;
54307;SDS011;40208;39.778;2.710;2024-02-23T14:28:56;6.70;;;2.88;;
54307;SDS011;40208;39.778;2.710;2024-02-23T14:31:43;7.55;;;2.30;;
54307;SDS011;40208;39.778;2.710;2024-02-23T14:34:28;7.53;;;1.65;;
54307;SDS011;40208;39.778;2.710;2024-02-23T14:37:14;3.55;;;1.20;;
54307;SDS011;40208;39.778;2.710;2024-02-23T14:39:59;7.10;;;1.77;;
54307;SDS011;40208;39.778;2.710;2024-02-23T14:42:44;6.95;;;1.80;;
54307;SDS011;40208;39.778;2.710;2024-02-23T14:45:29;7.47;;;1.58;;
54307;SDS011;40208;39.778;2.710;2024-02-23T14:48:14;5.95;;;1.98;;
54307;SDS011;40208;39.778;2.710;2024-02-23T14:50:58;4.22;;;1.02;;
54307;SDS011;40208;39.778;2.710;2024-02-23T14:53:44;10.88;;;4.68;;
54307;SDS011;40208;39.778;2.710;2024-02-23T14:56:29;17.70;;;8.13;;
54307;SDS011;40208;39.778;2.710;2024-02-23T14:59:14;11.02;;;5.35;;
54307;SDS011;40208;39.778;2.710;2024-02-23T15:01:59;8.57;;;3.70;;
54307;SDS011;40208;39.778;2.710;2024-02-23T15:04:44;7.05;;;2.17;;
54307;SDS011;40208;39.778;2.710;2024-02-23T15:07:29;8.00;;;2.30;;
54307;SDS011;40208;39.778;2.710;2024-02-23T15:10:14;6.97;;;2.13;;
54307;SDS011;40208;39.778;2.710;2024-02-23T15:12:59;10.45;;;3.42;;
54307;SDS011;40208;39.778;2.710;2024-02-23T15:15:44;8.55;;;4.50;;
54307;SDS011;40208;39.778;2.710;2024-02-23T15:18:29;6.00;;;2.85;;
54307;SDS011;40208;39.778;2.710;2024-02-23T15:21:14;12.93;;;7.53;;
54307;SDS011;40208;39.778;2.710;2024-02-23T15:23:59;7.03;;;3.20;;
54307;SDS011;40208;39.778;2.710;2024-02-23T15:26:44;8.10;;;2.67;;
54307;SDS011;40208;39.778;2.710;2024-02-23T15:29:28;6.82;;;2.97;;
54307;SDS011;40208;39.778;2.710;2024-02-23T15:32:14;11.00;;;2.47;;
54307;SDS011;40208;39.778;2.710;2024-02-23T15:35:04;6.18;;;2.22;;
54307;SDS011;40208;39.778;2.710;2024-02-23T15:37:53;4.43;;;1.50;;
54307;SDS011;40208;39.778;2.710;2024-02-23T15:40:38;4.10;;;1.60;;
54307;SDS011;40208;39.778;2.710;2024-02-23T15:43:23;7.65;;;1.20;;
54307;SDS011;40208;39.778;2.710;2024-02-23T15:46:08;6.22;;;1.83;;
54307;SDS011;40208;39.778;2.710;2024-02-23T15:48:53;7.22;;;1.50;;
54307;SDS011;40208;39.778;2.710;2024-02-23T15:51:37;4.53;;;0.93;;
54307;SDS011;40208;39.778;2.710;2024-02-23T15:54:22;5.50;;;1.35;;
54307;SDS011;40208;39.778;2.710;2024-02-23T15:57:07;4.80;;;1.10;;
54307;SDS011;40208;39.778;2.710;2024-02-23T15:59:52;6.38;;;1.63;;
54307;SDS011;40208;39.778;2.710;2024-02-23T16:02:37;4.32;;;1.33;;
54307;SDS011;40208;39.778;2.710;2024-02-23T16:05:22;8.63;;;1.25;;
54307;SDS011;40208;39.778;2.710;2024-02-23T16:08:07;9.02;;;1.30;;
54307;SDS011;40208;39.778;2.710;2024-02-23T16:10:52;7.78;;;1.25;;
54307;SDS011;40208;39.778;2.710;2024-02-23T16:13:37;3.25;;;1.45;;
54307;SDS011;40208;39.778;2.710;2024-02-23T16:16:23;8.52;;;1.70;;
54307;SDS011;40208;39.778;2.710;2024-02-23T16:19:09;6.05;;;1.90;;
54307;SDS011;40208;39.778;2.710;2024-02-23T16:21:54;4.22;;;1.35;;
54307;SDS011;40208;39.778;2.710;2024-02-23T16:24:40;9.38;;;1.42;;
54307;SDS011;40208;39.778;2.710;2024-02-23T16:27:25;4.88;;;0.88;;
54307;SDS011;40208;39.778;2.710;2024-02-23T16:30:10;5.68;;;3.20;;
54307;SDS011;40208;39.778;2.710;2024-02-23T16:32:55;14.10;;;3.03;;
54307;SDS011;40208;39.778;2.710;2024-02-23T16:35:41;8.32;;;2.35;;
54307;SDS011;40208;39.778;2.710;2024-02-23T16:38:26;6.45;;;1.85;;